ACA401 CYLW-KSEA
Flight info
| Callsign | ACA401 |
|---|---|
| Flight time | 0h 53m |
| Altitude | 28000 |
| Route | MRYT6 MERYT DCT JAKSN GLASR3 |
| Aircraft | A320/M-SDE3FGHIRWY/LB1 |
Departure
| Time | 2026-05-04 03:53 |
|---|---|
| Airport | Kelowna International Airport (CYLW) |
Arrival
| Time | 2026-05-04 04:47 |
|---|---|
| Airport | Seattle–Tacoma International Airport (KSEA) |
| Time | Latitude | Longitude | Altitude | Speed | Heading |
|---|---|---|---|---|---|
| 2026-05-04 03:47 | 49.95225 | -119.37947 | 1399 ft | 0 kts | 176° |
| 2026-05-04 03:49 | 49.95198 | -119.37945 | 1401 ft | 5 kts | 176° |
| 2026-05-04 03:50 | 49.95170 | -119.37933 | 1392 ft | 9 kts | 151° |
| 2026-05-04 03:50 | 49.95122 | -119.37858 | 1386 ft | 10 kts | 159° |
| 2026-05-04 03:50 | 49.95047 | -119.37840 | 1385 ft | 16 kts | 175° |
| 2026-05-04 03:50 | 49.94910 | -119.37821 | 1384 ft | 18 kts | 175° |
| 2026-05-04 03:51 | 49.94825 | -119.37805 | 1381 ft | 5 kts | 166° |
| 2026-05-04 03:51 | 49.94791 | -119.37771 | 1381 ft | 7 kts | 135° |
| 2026-05-04 03:51 | 49.94756 | -119.37716 | 1380 ft | 8 kts | 133° |
| 2026-05-04 03:51 | 49.94787 | -119.37667 | 1381 ft | 8 kts | 360° |
| 2026-05-04 03:52 | 49.94795 | -119.37668 | 1381 ft | 0 kts | 355° |
| 2026-05-04 03:52 | 49.94800 | -119.37668 | 1383 ft | 4 kts | 355° |
| 2026-05-04 03:52 | 49.95101 | -119.37708 | 1387 ft | 79 kts | 355° |
| 2026-05-04 03:52 | 49.95850 | -119.37816 | 1411 ft | 134 kts | 354° |
| 2026-05-04 03:53 | 49.96915 | -119.37944 | 1541 ft | 165 kts | 357° |
| 2026-05-04 03:53 | 49.98055 | -119.38110 | 2144 ft | 165 kts | 353° |
| 2026-05-04 03:53 | 49.99194 | -119.38323 | 2808 ft | 164 kts | 353° |
| 2026-05-04 03:53 | 50.00346 | -119.38540 | 3337 ft | 174 kts | 353° |
| 2026-05-04 03:54 | 50.01581 | -119.38925 | 3563 ft | 187 kts | 343° |
| 2026-05-04 03:54 | 50.02866 | -119.39581 | 3676 ft | 204 kts | 340° |
| 2026-05-04 03:54 | 50.04293 | -119.40370 | 3880 ft | 230 kts | 340° |
| 2026-05-04 03:54 | 50.05881 | -119.41249 | 4189 ft | 253 kts | 341° |
| 2026-05-04 03:55 | 50.07579 | -119.42174 | 4875 ft | 261 kts | 340° |
| 2026-05-04 03:55 | 50.09304 | -119.43099 | 5701 ft | 264 kts | 341° |
| 2026-05-04 03:55 | 50.11041 | -119.44017 | 6643 ft | 263 kts | 341° |
| 2026-05-04 03:55 | 50.12783 | -119.44933 | 7495 ft | 266 kts | 341° |
| 2026-05-04 03:56 | 50.14566 | -119.45733 | 8310 ft | 270 kts | 353° |
| 2026-05-04 03:56 | 50.16423 | -119.45229 | 9061 ft | 279 kts | 26° |
| 2026-05-04 03:56 | 50.17878 | -119.43178 | 9826 ft | 289 kts | 51° |
| 2026-05-04 03:56 | 50.19028 | -119.40573 | 10562 ft | 292 kts | 50° |
| 2026-05-04 03:57 | 50.20380 | -119.38211 | 11305 ft | 293 kts | 42° |
| 2026-05-04 03:57 | 50.21880 | -119.36054 | 12066 ft | 294 kts | 38° |
| 2026-05-04 03:57 | 50.23468 | -119.34023 | 12830 ft | 296 kts | 35° |
| 2026-05-04 03:57 | 50.25149 | -119.32104 | 13320 ft | 307 kts | 26° |
| 2026-05-04 03:58 | 50.29375 | -119.30646 | 14297 ft | 318 kts | 4° |
| 2026-05-04 03:58 | 50.31586 | -119.30306 | 14933 ft | 321 kts | 4° |
| 2026-05-04 03:58 | 50.33817 | -119.29940 | 15588 ft | 324 kts | 4° |
| 2026-05-04 03:59 | 50.36068 | -119.29558 | 16239 ft | 326 kts | 4° |
| 2026-05-04 03:59 | 50.38333 | -119.29174 | 16889 ft | 328 kts | 4° |
| 2026-05-04 03:59 | 50.40609 | -119.28790 | 17528 ft | 331 kts | 5° |
| 2026-05-04 03:59 | 50.42905 | -119.28488 | 18150 ft | 332 kts | 356° |
| 2026-05-04 04:00 | 50.45149 | -119.29227 | 18675 ft | 332 kts | 336° |
| 2026-05-04 04:00 | 50.47055 | -119.31279 | 19209 ft | 336 kts | 315° |
| 2026-05-04 04:00 | 50.48335 | -119.34372 | 19744 ft | 345 kts | 294° |
| 2026-05-04 04:00 | 50.48752 | -119.38114 | 20264 ft | 357 kts | 271° |
| 2026-05-04 04:01 | 50.48145 | -119.41950 | 20767 ft | 372 kts | 249° |
| 2026-05-04 04:01 | 50.46950 | -119.45590 | 21266 ft | 377 kts | 246° |
| 2026-05-04 04:01 | 50.45702 | -119.49236 | 21773 ft | 380 kts | 247° |
| 2026-05-04 04:01 | 50.44434 | -119.52899 | 22266 ft | 384 kts | 246° |
| 2026-05-04 04:02 | 50.43153 | -119.56596 | 22782 ft | 387 kts | 247° |
| 2026-05-04 04:02 | 50.41866 | -119.60328 | 23299 ft | 390 kts | 246° |
| 2026-05-04 04:02 | 50.40573 | -119.64090 | 23757 ft | 393 kts | 246° |
| 2026-05-04 04:02 | 50.39271 | -119.67882 | 24179 ft | 397 kts | 246° |
| 2026-05-04 04:03 | 50.37958 | -119.71704 | 24603 ft | 400 kts | 246° |
| 2026-05-04 04:03 | 50.36634 | -119.75558 | 25048 ft | 403 kts | 247° |
| 2026-05-04 04:03 | 50.35300 | -119.79440 | 25468 ft | 406 kts | 247° |
| 2026-05-04 04:03 | 50.33955 | -119.83348 | 25871 ft | 409 kts | 247° |
| 2026-05-04 04:04 | 50.32598 | -119.87280 | 26244 ft | 412 kts | 246° |
| 2026-05-04 04:04 | 50.31229 | -119.91234 | 26598 ft | 415 kts | 246° |
| 2026-05-04 04:04 | 50.29848 | -119.95216 | 26978 ft | 418 kts | 246° |
| 2026-05-04 04:04 | 50.28457 | -119.99222 | 27352 ft | 420 kts | 246° |
| 2026-05-04 04:05 | 50.27058 | -120.03251 | 27716 ft | 423 kts | 246° |
| 2026-05-04 04:05 | 50.25648 | -120.07310 | 27904 ft | 429 kts | 246° |
| 2026-05-04 04:05 | 50.24208 | -120.11456 | 27932 ft | 439 kts | 246° |
| 2026-05-04 04:05 | 50.22732 | -120.15701 | 27930 ft | 450 kts | 246° |
| 2026-05-04 04:06 | 50.21220 | -120.20033 | 27931 ft | 457 kts | 246° |
| 2026-05-04 04:06 | 50.19688 | -120.24392 | 27929 ft | 459 kts | 245° |
| 2026-05-04 04:06 | 50.18145 | -120.28762 | 27931 ft | 460 kts | 245° |
| 2026-05-04 04:06 | 50.16598 | -120.33134 | 27925 ft | 461 kts | 245° |
| 2026-05-04 04:07 | 50.15050 | -120.37511 | 27927 ft | 461 kts | 245° |
| 2026-05-04 04:07 | 50.13503 | -120.41897 | 27923 ft | 461 kts | 245° |
| 2026-05-04 04:07 | 50.11959 | -120.46279 | 27922 ft | 461 kts | 245° |
| 2026-05-04 04:07 | 50.10415 | -120.50651 | 27925 ft | 461 kts | 245° |
| 2026-05-04 04:08 | 50.08868 | -120.55026 | 27916 ft | 461 kts | 245° |
| 2026-05-04 04:08 | 50.07337 | -120.59340 | 27911 ft | 461 kts | 245° |
| 2026-05-04 04:08 | 50.05786 | -120.63699 | 27910 ft | 461 kts | 245° |
| 2026-05-04 04:08 | 50.04230 | -120.68059 | 27907 ft | 461 kts | 245° |
| 2026-05-04 04:09 | 50.02656 | -120.72468 | 27907 ft | 461 kts | 245° |
| 2026-05-04 04:09 | 50.01097 | -120.76822 | 27902 ft | 461 kts | 244° |
| 2026-05-04 04:09 | 49.99535 | -120.81170 | 27898 ft | 461 kts | 244° |
| 2026-05-04 04:09 | 49.97971 | -120.85516 | 27889 ft | 460 kts | 244° |
| 2026-05-04 04:10 | 49.96171 | -120.89658 | 27888 ft | 465 kts | 233° |
| 2026-05-04 04:10 | 49.93895 | -120.93246 | 27890 ft | 469 kts | 222° |
| 2026-05-04 04:10 | 49.91208 | -120.96139 | 27897 ft | 473 kts | 211° |
| 2026-05-04 04:10 | 49.88200 | -120.98222 | 27886 ft | 475 kts | 199° |
| 2026-05-04 04:11 | 49.85002 | -120.99538 | 27888 ft | 476 kts | 194° |
| 2026-05-04 04:11 | 49.81780 | -121.00740 | 27886 ft | 476 kts | 194° |
| 2026-05-04 04:11 | 49.78604 | -121.01926 | 27891 ft | 476 kts | 194° |
| 2026-05-04 04:11 | 49.75382 | -121.03131 | 27890 ft | 476 kts | 194° |
| 2026-05-04 04:12 | 49.72153 | -121.04341 | 27888 ft | 476 kts | 194° |
| 2026-05-04 04:12 | 49.68928 | -121.05549 | 27890 ft | 476 kts | 194° |
| 2026-05-04 04:12 | 49.65705 | -121.06757 | 27892 ft | 476 kts | 194° |
| 2026-05-04 04:12 | 49.62481 | -121.07961 | 27894 ft | 476 kts | 194° |
| 2026-05-04 04:13 | 49.59267 | -121.09152 | 27888 ft | 475 kts | 194° |
| 2026-05-04 04:13 | 49.56045 | -121.10339 | 27883 ft | 475 kts | 194° |
| 2026-05-04 04:13 | 49.52831 | -121.11524 | 27882 ft | 476 kts | 194° |
| 2026-05-04 04:13 | 49.49619 | -121.12716 | 27881 ft | 476 kts | 194° |
| 2026-05-04 04:14 | 49.46392 | -121.13915 | 27879 ft | 476 kts | 194° |
| 2026-05-04 04:14 | 49.43169 | -121.15110 | 27871 ft | 476 kts | 194° |
| 2026-05-04 04:14 | 49.39945 | -121.16302 | 27876 ft | 477 kts | 193° |
| 2026-05-04 04:14 | 49.36719 | -121.17492 | 27880 ft | 477 kts | 193° |
| 2026-05-04 04:15 | 49.33492 | -121.18679 | 27881 ft | 477 kts | 193° |
| 2026-05-04 04:15 | 49.30263 | -121.19865 | 27886 ft | 476 kts | 193° |
| 2026-05-04 04:15 | 49.27043 | -121.21046 | 27887 ft | 476 kts | 193° |
| 2026-05-04 04:15 | 49.23823 | -121.22225 | 27888 ft | 476 kts | 193° |
| 2026-05-04 04:16 | 49.20604 | -121.23401 | 27890 ft | 476 kts | 193° |
| 2026-05-04 04:16 | 49.17384 | -121.24575 | 27888 ft | 475 kts | 193° |
| 2026-05-04 04:16 | 49.14170 | -121.25748 | 27891 ft | 475 kts | 193° |
| 2026-05-04 04:16 | 49.10951 | -121.26924 | 27892 ft | 475 kts | 193° |
| 2026-05-04 04:17 | 49.07740 | -121.28094 | 27891 ft | 475 kts | 193° |
| 2026-05-04 04:17 | 49.04526 | -121.29265 | 27894 ft | 474 kts | 193° |
| 2026-05-04 04:17 | 49.01316 | -121.30430 | 27897 ft | 474 kts | 193° |
| 2026-05-04 04:17 | 48.98112 | -121.31589 | 27892 ft | 474 kts | 193° |
| 2026-05-04 04:18 | 48.94903 | -121.32748 | 27888 ft | 473 kts | 193° |
| 2026-05-04 04:18 | 48.91699 | -121.33906 | 27885 ft | 474 kts | 193° |
| 2026-05-04 04:18 | 48.88872 | -121.34933 | 27887 ft | 474 kts | 193° |
| 2026-05-04 04:18 | 48.85669 | -121.36116 | 27898 ft | 474 kts | 193° |
| 2026-05-04 04:19 | 48.82461 | -121.37276 | 27898 ft | 474 kts | 192° |
| 2026-05-04 04:19 | 48.79251 | -121.38419 | 27900 ft | 474 kts | 192° |
| 2026-05-04 04:19 | 48.76003 | -121.39574 | 27902 ft | 473 kts | 192° |
| 2026-05-04 04:19 | 48.72799 | -121.40717 | 27897 ft | 473 kts | 192° |
| 2026-05-04 04:20 | 48.69594 | -121.41859 | 27894 ft | 473 kts | 192° |
| 2026-05-04 04:20 | 48.66388 | -121.42999 | 27894 ft | 473 kts | 192° |
| 2026-05-04 04:20 | 48.63180 | -121.44143 | 27894 ft | 474 kts | 192° |
| 2026-05-04 04:20 | 48.60012 | -121.45273 | 27891 ft | 474 kts | 192° |
| 2026-05-04 04:21 | 48.56759 | -121.46432 | 27892 ft | 474 kts | 192° |
| 2026-05-04 04:21 | 48.53589 | -121.47560 | 27893 ft | 474 kts | 192° |
| 2026-05-04 04:21 | 48.50380 | -121.48703 | 27821 ft | 474 kts | 192° |
| 2026-05-04 04:21 | 48.47182 | -121.49838 | 27098 ft | 472 kts | 192° |
| 2026-05-04 04:22 | 48.43990 | -121.50967 | 26313 ft | 471 kts | 192° |
| 2026-05-04 04:22 | 48.40796 | -121.52098 | 25416 ft | 472 kts | 192° |
| 2026-05-04 04:22 | 48.37592 | -121.53232 | 24530 ft | 473 kts | 192° |
| 2026-05-04 04:22 | 48.34393 | -121.54365 | 23980 ft | 467 kts | 193° |
| 2026-05-04 04:23 | 48.31289 | -121.55465 | 23862 ft | 450 kts | 193° |
| 2026-05-04 04:23 | 48.28313 | -121.56521 | 23726 ft | 427 kts | 192° |
| 2026-05-04 04:23 | 48.25481 | -121.57523 | 23326 ft | 410 kts | 192° |
| 2026-05-04 04:23 | 48.22733 | -121.58488 | 22753 ft | 404 kts | 192° |
| 2026-05-04 04:24 | 48.20011 | -121.59437 | 22390 ft | 399 kts | 192° |
| 2026-05-04 04:24 | 48.17337 | -121.60370 | 21770 ft | 391 kts | 193° |
| 2026-05-04 04:24 | 48.14701 | -121.61294 | 20983 ft | 386 kts | 193° |
| 2026-05-04 04:24 | 48.12105 | -121.62206 | 20262 ft | 380 kts | 193° |
| 2026-05-04 04:25 | 48.09548 | -121.63102 | 19577 ft | 374 kts | 193° |
| 2026-05-04 04:25 | 48.07031 | -121.63980 | 18870 ft | 369 kts | 193° |
| 2026-05-04 04:25 | 48.04547 | -121.64841 | 18194 ft | 364 kts | 193° |
| 2026-05-04 04:25 | 48.02098 | -121.65693 | 17415 ft | 359 kts | 193° |
| 2026-05-04 04:26 | 47.99683 | -121.66538 | 16686 ft | 354 kts | 193° |
| 2026-05-04 04:26 | 47.97298 | -121.67371 | 16113 ft | 351 kts | 193° |
| 2026-05-04 04:26 | 47.94918 | -121.68198 | 15927 ft | 351 kts | 193° |
| 2026-05-04 04:26 | 47.92538 | -121.69023 | 15921 ft | 351 kts | 194° |
| 2026-05-04 04:27 | 47.90986 | -121.69698 | 15919 ft | 351 kts | 200° |
| 2026-05-04 04:27 | 47.88755 | -121.71163 | 15819 ft | 350 kts | 209° |
| 2026-05-04 04:27 | 47.86715 | -121.73112 | 15565 ft | 348 kts | 218° |
| 2026-05-04 04:27 | 47.84892 | -121.75470 | 15322 ft | 346 kts | 223° |
| 2026-05-04 04:28 | 47.83124 | -121.77887 | 15080 ft | 345 kts | 223° |
| 2026-05-04 04:28 | 47.81354 | -121.80288 | 14835 ft | 343 kts | 223° |
| 2026-05-04 04:28 | 47.79592 | -121.82666 | 14592 ft | 342 kts | 223° |
| 2026-05-04 04:28 | 47.77831 | -121.85038 | 14260 ft | 341 kts | 223° |
| 2026-05-04 04:29 | 47.76082 | -121.87395 | 14020 ft | 338 kts | 223° |
| 2026-05-04 04:29 | 47.74345 | -121.89736 | 14008 ft | 336 kts | 223° |
| 2026-05-04 04:29 | 47.72644 | -121.92023 | 13920 ft | 324 kts | 223° |
| 2026-05-04 04:29 | 47.71000 | -121.94231 | 13737 ft | 313 kts | 223° |
| 2026-05-04 04:30 | 47.69370 | -121.96419 | 13336 ft | 311 kts | 223° |
| 2026-05-04 04:30 | 47.67773 | -121.98568 | 13043 ft | 309 kts | 223° |
| 2026-05-04 04:30 | 47.66185 | -122.00705 | 12870 ft | 309 kts | 223° |
| 2026-05-04 04:30 | 47.64599 | -122.02836 | 12728 ft | 307 kts | 223° |
| 2026-05-04 04:31 | 47.63013 | -122.04961 | 12592 ft | 307 kts | 223° |
| 2026-05-04 04:31 | 47.61435 | -122.07076 | 12455 ft | 306 kts | 223° |
| 2026-05-04 04:31 | 47.59856 | -122.09193 | 12315 ft | 305 kts | 223° |
| 2026-05-04 04:31 | 47.58279 | -122.11300 | 12178 ft | 305 kts | 221° |
| 2026-05-04 04:32 | 47.56526 | -122.13062 | 12039 ft | 305 kts | 206° |
| 2026-05-04 04:32 | 47.54526 | -122.14083 | 11979 ft | 305 kts | 191° |
| 2026-05-04 04:32 | 47.52412 | -122.14319 | 11989 ft | 306 kts | 178° |
| 2026-05-04 04:32 | 47.50287 | -122.14198 | 11993 ft | 306 kts | 178° |
| 2026-05-04 04:33 | 47.48155 | -122.14080 | 11926 ft | 308 kts | 178° |
| 2026-05-04 04:33 | 47.46006 | -122.13963 | 11436 ft | 311 kts | 178° |
| 2026-05-04 04:33 | 47.43860 | -122.13850 | 10935 ft | 304 kts | 178° |
| 2026-05-04 04:33 | 47.41757 | -122.13743 | 10457 ft | 301 kts | 178° |
| 2026-05-04 04:34 | 47.39678 | -122.13637 | 9984 ft | 298 kts | 178° |
| 2026-05-04 04:34 | 47.37618 | -122.13531 | 9489 ft | 295 kts | 178° |
| 2026-05-04 04:34 | 47.35578 | -122.13425 | 8971 ft | 292 kts | 178° |
| 2026-05-04 04:34 | 47.33554 | -122.13317 | 8478 ft | 290 kts | 178° |
| 2026-05-04 04:35 | 47.31542 | -122.13210 | 7978 ft | 288 kts | 178° |
| 2026-05-04 04:35 | 47.29543 | -122.13103 | 7485 ft | 287 kts | 177° |
| 2026-05-04 04:35 | 47.27558 | -122.12997 | 7005 ft | 285 kts | 177° |
| 2026-05-04 04:35 | 47.25583 | -122.12893 | 6529 ft | 283 kts | 177° |
| 2026-05-04 04:36 | 47.23621 | -122.12792 | 6041 ft | 281 kts | 177° |
| 2026-05-04 04:36 | 47.21670 | -122.12696 | 5537 ft | 280 kts | 177° |
| 2026-05-04 04:36 | 47.19728 | -122.12601 | 5053 ft | 279 kts | 177° |
| 2026-05-04 04:36 | 47.17792 | -122.12502 | 4565 ft | 278 kts | 177° |
| 2026-05-04 04:37 | 47.12253 | -122.13626 | 4006 ft | 263 kts | 221° |
| 2026-05-04 04:37 | 47.11228 | -122.15685 | 4014 ft | 241 kts | 253° |
| 2026-05-04 04:38 | 47.11097 | -122.17999 | 4013 ft | 221 kts | 287° |
| 2026-05-04 04:38 | 47.11747 | -122.19986 | 4026 ft | 216 kts | 307° |
| 2026-05-04 04:38 | 47.12589 | -122.21728 | 4004 ft | 201 kts | 309° |
| 2026-05-04 04:38 | 47.13409 | -122.23345 | 4011 ft | 195 kts | 310° |
| 2026-05-04 04:39 | 47.14218 | -122.24938 | 4013 ft | 194 kts | 310° |
| 2026-05-04 04:39 | 47.15026 | -122.26533 | 4019 ft | 194 kts | 310° |
| 2026-05-04 04:39 | 47.15832 | -122.28121 | 4013 ft | 194 kts | 310° |
| 2026-05-04 04:39 | 47.16681 | -122.29653 | 4014 ft | 192 kts | 321° |
| 2026-05-04 04:40 | 47.17793 | -122.30679 | 4016 ft | 188 kts | 343° |
| 2026-05-04 04:40 | 47.19064 | -122.31018 | 4024 ft | 186 kts | 2° |
| 2026-05-04 04:40 | 47.20361 | -122.31004 | 4022 ft | 187 kts | 2° |
| 2026-05-04 04:40 | 47.21662 | -122.30992 | 3981 ft | 188 kts | 2° |
| 2026-05-04 04:41 | 47.22963 | -122.30981 | 3817 ft | 186 kts | 1° |
| 2026-05-04 04:41 | 47.24245 | -122.30970 | 3638 ft | 178 kts | 2° |
| 2026-05-04 04:41 | 47.25454 | -122.30960 | 3419 ft | 165 kts | 2° |
| 2026-05-04 04:41 | 47.26535 | -122.30952 | 3226 ft | 148 kts | 2° |
| 2026-05-04 04:42 | 47.27540 | -122.30943 | 3050 ft | 142 kts | 2° |
| 2026-05-04 04:42 | 47.28503 | -122.30934 | 2876 ft | 139 kts | 2° |
| 2026-05-04 04:42 | 47.29477 | -122.30925 | 2710 ft | 137 kts | 2° |
| 2026-05-04 04:42 | 47.30430 | -122.30916 | 2551 ft | 137 kts | 2° |
| 2026-05-04 04:43 | 47.31377 | -122.30908 | 2390 ft | 136 kts | 2° |
| 2026-05-04 04:43 | 47.32320 | -122.30899 | 2227 ft | 136 kts | 2° |
| 2026-05-04 04:43 | 47.33261 | -122.30891 | 2059 ft | 135 kts | 2° |
| 2026-05-04 04:43 | 47.34194 | -122.30883 | 1902 ft | 133 kts | 2° |
| 2026-05-04 04:44 | 47.35117 | -122.30875 | 1741 ft | 132 kts | 1° |
| 2026-05-04 04:44 | 47.36033 | -122.30867 | 1588 ft | 131 kts | 2° |
| 2026-05-04 04:44 | 47.36948 | -122.30858 | 1420 ft | 134 kts | 2° |
| 2026-05-04 04:44 | 47.37877 | -122.30850 | 1265 ft | 133 kts | 1° |
| 2026-05-04 04:45 | 47.38794 | -122.30842 | 1125 ft | 133 kts | 1° |
| 2026-05-04 04:45 | 47.39734 | -122.30834 | 985 ft | 136 kts | 1° |
| 2026-05-04 04:45 | 47.40682 | -122.30826 | 829 ft | 136 kts | 0° |
| 2026-05-04 04:47 | 47.44590 | -122.30711 | 384 ft | 19 kts | 79° |
| 2026-05-04 04:47 | 47.44598 | -122.30659 | 384 ft | 0 kts | 73° |
| 2026-05-04 04:48 | 47.44597 | -122.30653 | 384 ft | 2 kts | 98° |
| 2026-05-04 04:49 | 47.44251 | -122.30634 | 384 ft | 15 kts | 179° |
| 2026-05-04 04:49 | 47.44152 | -122.30635 | 384 ft | 13 kts | 180° |
| 2026-05-04 04:49 | 47.44096 | -122.30603 | 384 ft | 6 kts | 81° |
| 2026-05-04 04:49 | 47.44122 | -122.30535 | 384 ft | 11 kts | 64° |
| 2026-05-04 04:50 | 47.44126 | -122.30448 | 383 ft | 4 kts | 91° |
| 2026-05-04 04:50 | 47.44126 | -122.30442 | 384 ft | 0 kts | 91° |